sensor_id;sensor_type;location;lat;lon;timestamp;pressure;altitude;pressure_sealevel;temperature;humidity
58072;BME280;60383;46.626;18.866;2023-04-08T00:00:13;100602.56;;;5.29;87.76
58072;BME280;60383;46.626;18.866;2023-04-08T00:02:39;100611.56;;;5.18;88.19
58072;BME280;60383;46.626;18.866;2023-04-08T00:05:05;100610.16;;;5.12;88.46
58072;BME280;60383;46.626;18.866;2023-04-08T00:07:31;100607.44;;;5.12;88.19
58072;BME280;60383;46.626;18.866;2023-04-08T00:09:56;100609.31;;;5.12;87.88
58072;BME280;60383;46.626;18.866;2023-04-08T00:12:22;100610.28;;;5.11;88.19
58072;BME280;60383;46.626;18.866;2023-04-08T00:14:47;100613.84;;;5.11;88.93
58072;BME280;60383;46.626;18.866;2023-04-08T00:17:13;100607.69;;;5.09;89.11
58072;BME280;60383;46.626;18.866;2023-04-08T00:19:38;100603.38;;;5.07;88.64
58072;BME280;60383;46.626;18.866;2023-04-08T00:22:04;100610.63;;;5.06;88.98
58072;BME280;60383;46.626;18.866;2023-04-08T00:24:30;100606.44;;;5.02;89.15
58072;BME280;60383;46.626;18.866;2023-04-08T00:26:55;100611.53;;;5.07;89.14
58072;BME280;60383;46.626;18.866;2023-04-08T00:29:21;100605.81;;;4.99;89.13
58072;BME280;60383;46.626;18.866;2023-04-08T00:31:46;100608.06;;;4.80;90.12
58072;BME280;60383;46.626;18.866;2023-04-08T00:34:12;100598.69;;;4.85;89.54
58072;BME280;60383;46.626;18.866;2023-04-08T00:36:37;100600.72;;;4.94;89.69
58072;BME280;60383;46.626;18.866;2023-04-08T00:39:04;100595.16;;;4.95;88.39
58072;BME280;60383;46.626;18.866;2023-04-08T00:41:32;100608.19;;;5.03;88.55
58072;BME280;60383;46.626;18.866;2023-04-08T00:43:58;100611.38;;;4.97;88.76
58072;BME280;60383;46.626;18.866;2023-04-08T00:46:23;100616.66;;;4.99;88.75
58072;BME280;60383;46.626;18.866;2023-04-08T00:48:51;100612.97;;;5.00;88.85
58072;BME280;60383;46.626;18.866;2023-04-08T00:51:17;100615.78;;;4.98;88.69
58072;BME280;60383;46.626;18.866;2023-04-08T00:53:43;100626.75;;;4.96;89.74
58072;BME280;60383;46.626;18.866;2023-04-08T00:56:09;100617.94;;;5.06;90.62
58072;BME280;60383;46.626;18.866;2023-04-08T00:58:35;100621.41;;;5.08;90.50
58072;BME280;60383;46.626;18.866;2023-04-08T01:01:21;100615.09;;;5.07;90.60
58072;BME280;60383;46.626;18.866;2023-04-08T01:04:08;100611.41;;;5.08;89.97
58072;BME280;60383;46.626;18.866;2023-04-08T01:06:40;100603.00;;;5.11;90.17
58072;BME280;60383;46.626;18.866;2023-04-08T01:09:11;100608.34;;;5.13;90.49
58072;BME280;60383;46.626;18.866;2023-04-08T01:11:41;100604.72;;;5.12;90.85
58072;BME280;60383;46.626;18.866;2023-04-08T01:14:08;100597.69;;;5.10;90.48
58072;BME280;60383;46.626;18.866;2023-04-08T01:16:39;100603.63;;;5.15;90.13
58072;BME280;60383;46.626;18.866;2023-04-08T01:19:07;100601.50;;;5.07;90.58
58072;BME280;60383;46.626;18.866;2023-04-08T01:21:35;100604.88;;;4.87;90.67
58072;BME280;60383;46.626;18.866;2023-04-08T01:24:22;100604.94;;;4.74;91.47
58072;BME280;60383;46.626;18.866;2023-04-08T01:26:49;100604.66;;;4.66;92.05
58072;BME280;60383;46.626;18.866;2023-04-08T01:29:15;100608.19;;;4.55;92.38
58072;BME280;60383;46.626;18.866;2023-04-08T01:31:41;100613.91;;;4.63;92.40
58072;BME280;60383;46.626;18.866;2023-04-08T01:34:09;100614.09;;;4.73;92.05
58072;BME280;60383;46.626;18.866;2023-04-08T01:36:37;100605.47;;;4.79;91.74
58072;BME280;60383;46.626;18.866;2023-04-08T01:39:04;100612.63;;;4.80;91.77
58072;BME280;60383;46.626;18.866;2023-04-08T01:41:33;100608.28;;;4.77;91.77
58072;BME280;60383;46.626;18.866;2023-04-08T01:43:58;100605.31;;;4.69;91.90
58072;BME280;60383;46.626;18.866;2023-04-08T01:46:25;100600.78;;;4.81;91.26
58072;BME280;60383;46.626;18.866;2023-04-08T01:48:53;100607.47;;;4.88;91.19
58072;BME280;60383;46.626;18.866;2023-04-08T01:51:20;100599.56;;;4.85;90.90
58072;BME280;60383;46.626;18.866;2023-04-08T01:53:46;100599.06;;;4.80;90.48
58072;BME280;60383;46.626;18.866;2023-04-08T01:56:13;100602.84;;;4.77;90.89
58072;BME280;60383;46.626;18.866;2023-04-08T01:58:51;100603.09;;;4.74;91.12
58072;BME280;60383;46.626;18.866;2023-04-08T02:01:20;100601.53;;;4.83;90.35
58072;BME280;60383;46.626;18.866;2023-04-08T02:03:47;100604.13;;;4.85;90.69
58072;BME280;60383;46.626;18.866;2023-04-08T02:06:16;100608.69;;;4.84;90.82
58072;BME280;60383;46.626;18.866;2023-04-08T02:08:42;100603.91;;;4.88;90.20
58072;BME280;60383;46.626;18.866;2023-04-08T02:11:07;100609.94;;;4.80;90.97
58072;BME280;60383;46.626;18.866;2023-04-08T02:13:33;100616.16;;;4.69;91.82
58072;BME280;60383;46.626;18.866;2023-04-08T02:16:15;100615.41;;;4.67;91.65
58072;BME280;60383;46.626;18.866;2023-04-08T02:18:44;100611.53;;;4.58;92.54
58072;BME280;60383;46.626;18.866;2023-04-08T02:21:12;100610.19;;;4.64;92.44
58072;BME280;60383;46.626;18.866;2023-04-08T02:23:40;100604.53;;;4.67;91.90
58072;BME280;60383;46.626;18.866;2023-04-08T02:26:13;100607.00;;;4.70;91.49
58072;BME280;60383;46.626;18.866;2023-04-08T02:28:40;100603.44;;;4.70;91.43
58072;BME280;60383;46.626;18.866;2023-04-08T02:31:10;100604.59;;;4.78;91.28
58072;BME280;60383;46.626;18.866;2023-04-08T02:33:39;100602.16;;;4.87;89.92
58072;BME280;60383;46.626;18.866;2023-04-08T02:36:06;100602.03;;;4.88;90.37
58072;BME280;60383;46.626;18.866;2023-04-08T02:38:32;100610.25;;;5.00;90.16
58072;BME280;60383;46.626;18.866;2023-04-08T02:40:57;100602.13;;;5.00;90.34
58072;BME280;60383;46.626;18.866;2023-04-08T02:43:24;100609.09;;;4.91;90.45
58072;BME280;60383;46.626;18.866;2023-04-08T02:45:56;100614.25;;;4.83;90.30
58072;BME280;60383;46.626;18.866;2023-04-08T02:48:22;100608.47;;;4.87;91.10
58072;BME280;60383;46.626;18.866;2023-04-08T02:50:47;100609.56;;;4.85;90.91
58072;BME280;60383;46.626;18.866;2023-04-08T02:53:13;100615.91;;;4.96;90.85
58072;BME280;60383;46.626;18.866;2023-04-08T02:55:38;100618.44;;;4.87;91.78
58072;BME280;60383;46.626;18.866;2023-04-08T02:58:04;100618.41;;;4.75;92.25
58072;BME280;60383;46.626;18.866;2023-04-08T03:00:29;100616.19;;;4.80;92.27
58072;BME280;60383;46.626;18.866;2023-04-08T03:02:55;100609.47;;;4.86;91.75
58072;BME280;60383;46.626;18.866;2023-04-08T03:05:21;100611.00;;;4.77;91.46
58072;BME280;60383;46.626;18.866;2023-04-08T03:07:46;100617.94;;;4.82;91.43
58072;BME280;60383;46.626;18.866;2023-04-08T03:10:12;100619.03;;;4.79;91.12
58072;BME280;60383;46.626;18.866;2023-04-08T03:12:37;100619.22;;;4.89;90.89
58072;BME280;60383;46.626;18.866;2023-04-08T03:15:03;100610.66;;;4.82;90.86
58072;BME280;60383;46.626;18.866;2023-04-08T03:17:29;100611.28;;;4.86;90.41
58072;BME280;60383;46.626;18.866;2023-04-08T03:19:56;100612.25;;;4.85;90.49
58072;BME280;60383;46.626;18.866;2023-04-08T03:22:22;100610.00;;;4.78;90.13
58072;BME280;60383;46.626;18.866;2023-04-08T03:24:48;100607.44;;;4.77;90.69
58072;BME280;60383;46.626;18.866;2023-04-08T03:27:14;100607.84;;;4.84;90.36
58072;BME280;60383;46.626;18.866;2023-04-08T03:29:39;100618.63;;;4.72;91.26
58072;BME280;60383;46.626;18.866;2023-04-08T03:32:05;100612.97;;;4.51;91.92
58072;BME280;60383;46.626;18.866;2023-04-08T03:34:33;100614.25;;;4.58;92.48
58072;BME280;60383;46.626;18.866;2023-04-08T03:36:58;100622.31;;;4.71;92.03
58072;BME280;60383;46.626;18.866;2023-04-08T03:39:24;100611.88;;;4.78;91.53
58072;BME280;60383;46.626;18.866;2023-04-08T03:41:49;100617.47;;;4.63;92.09
58072;BME280;60383;46.626;18.866;2023-04-08T03:44:15;100622.31;;;4.71;92.10
58072;BME280;60383;46.626;18.866;2023-04-08T03:46:40;100619.97;;;4.67;92.23
58072;BME280;60383;46.626;18.866;2023-04-08T03:49:06;100619.59;;;4.71;92.75
58072;BME280;60383;46.626;18.866;2023-04-08T03:51:31;100617.19;;;4.79;92.98
58072;BME280;60383;46.626;18.866;2023-04-08T03:53:57;100616.84;;;4.84;92.12
58072;BME280;60383;46.626;18.866;2023-04-08T03:56:22;100621.28;;;4.85;91.13
58072;BME280;60383;46.626;18.866;2023-04-08T03:58:49;100621.00;;;4.77;90.85
58072;BME280;60383;46.626;18.866;2023-04-08T04:01:15;100635.25;;;4.68;91.56
58072;BME280;60383;46.626;18.866;2023-04-08T04:03:40;100634.59;;;4.64;91.27
58072;BME280;60383;46.626;18.866;2023-04-08T04:06:06;100638.84;;;4.68;91.70
58072;BME280;60383;46.626;18.866;2023-04-08T04:08:31;100636.47;;;4.63;92.09
58072;BME280;60383;46.626;18.866;2023-04-08T04:11:00;100639.63;;;4.57;92.57
58072;BME280;60383;46.626;18.866;2023-04-08T04:13:25;100639.94;;;4.66;92.27
58072;BME280;60383;46.626;18.866;2023-04-08T04:15:51;100637.63;;;4.72;91.96
58072;BME280;60383;46.626;18.866;2023-04-08T04:18:16;100650.19;;;4.49;92.48
58072;BME280;60383;46.626;18.866;2023-04-08T04:20:42;100655.94;;;4.44;93.02
58072;BME280;60383;46.626;18.866;2023-04-08T04:23:08;100655.84;;;4.46;93.43
58072;BME280;60383;46.626;18.866;2023-04-08T04:25:33;100662.44;;;4.55;92.95
58072;BME280;60383;46.626;18.866;2023-04-08T04:27:59;100662.75;;;4.50;93.08
58072;BME280;60383;46.626;18.866;2023-04-08T04:30:26;100666.25;;;4.52;93.16
58072;BME280;60383;46.626;18.866;2023-04-08T04:32:52;100665.09;;;4.68;92.40
58072;BME280;60383;46.626;18.866;2023-04-08T04:35:17;100670.75;;;4.64;92.61
58072;BME280;60383;46.626;18.866;2023-04-08T04:37:43;100668.25;;;4.61;92.33
58072;BME280;60383;46.626;18.866;2023-04-08T04:40:08;100662.44;;;4.55;93.31
58072;BME280;60383;46.626;18.866;2023-04-08T04:42:34;100666.69;;;4.46;93.16
58072;BME280;60383;46.626;18.866;2023-04-08T04:45:00;100669.59;;;4.56;93.89
58072;BME280;60383;46.626;18.866;2023-04-08T04:47:25;100670.56;;;4.55;93.70
58072;BME280;60383;46.626;18.866;2023-04-08T04:49:51;100672.75;;;4.50;93.72
58072;BME280;60383;46.626;18.866;2023-04-08T04:52:16;100676.19;;;4.52;93.71
58072;BME280;60383;46.626;18.866;2023-04-08T04:54:42;100677.63;;;4.57;93.65
58072;BME280;60383;46.626;18.866;2023-04-08T04:57:08;100676.06;;;4.66;93.57
58072;BME280;60383;46.626;18.866;2023-04-08T04:59:33;100678.13;;;4.62;93.28
58072;BME280;60383;46.626;18.866;2023-04-08T05:01:58;100680.31;;;4.57;93.25
58072;BME280;60383;46.626;18.866;2023-04-08T05:04:24;100681.03;;;4.72;92.66
58072;BME280;60383;46.626;18.866;2023-04-08T05:06:50;100690.69;;;4.76;92.44
58072;BME280;60383;46.626;18.866;2023-04-08T05:09:16;100687.09;;;4.76;92.74
58072;BME280;60383;46.626;18.866;2023-04-08T05:11:41;100691.44;;;4.78;92.80
58072;BME280;60383;46.626;18.866;2023-04-08T05:14:07;100689.47;;;4.80;93.32
58072;BME280;60383;46.626;18.866;2023-04-08T05:16:33;100692.97;;;4.70;92.63
58072;BME280;60383;46.626;18.866;2023-04-08T05:18:58;100691.44;;;4.78;92.10
58072;BME280;60383;46.626;18.866;2023-04-08T05:21:24;100695.56;;;4.71;90.98
58072;BME280;60383;46.626;18.866;2023-04-08T05:23:50;100694.41;;;4.62;90.60
58072;BME280;60383;46.626;18.866;2023-04-08T05:26:20;100703.66;;;4.60;90.92
58072;BME280;60383;46.626;18.866;2023-04-08T05:28:47;100694.75;;;4.58;90.67
58072;BME280;60383;46.626;18.866;2023-04-08T05:31:17;100704.16;;;4.65;91.02
58072;BME280;60383;46.626;18.866;2023-04-08T05:33:43;100710.53;;;4.77;90.26
58072;BME280;60383;46.626;18.866;2023-04-08T05:36:10;100704.25;;;4.76;90.57
58072;BME280;60383;46.626;18.866;2023-04-08T05:38:36;100706.22;;;4.74;91.24
58072;BME280;60383;46.626;18.866;2023-04-08T05:41:01;100710.28;;;4.93;91.06
58072;BME280;60383;46.626;18.866;2023-04-08T05:43:27;100703.28;;;5.02;91.16
58072;BME280;60383;46.626;18.866;2023-04-08T05:45:52;100709.19;;;5.20;90.01
58072;BME280;60383;46.626;18.866;2023-04-08T05:48:18;100711.38;;;5.15;89.64
58072;BME280;60383;46.626;18.866;2023-04-08T05:50:43;100714.94;;;5.15;89.51
58072;BME280;60383;46.626;18.866;2023-04-08T05:53:09;100711.38;;;5.15;89.68
58072;BME280;60383;46.626;18.866;2023-04-08T05:55:34;100708.72;;;5.26;89.71
58072;BME280;60383;46.626;18.866;2023-04-08T05:58:00;100709.19;;;5.20;90.06
58072;BME280;60383;46.626;18.866;2023-04-08T06:00:26;100716.78;;;5.27;89.61
58072;BME280;60383;46.626;18.866;2023-04-08T06:02:51;100702.59;;;5.11;90.38
58072;BME280;60383;46.626;18.866;2023-04-08T06:05:17;100715.38;;;4.98;90.50
58072;BME280;60383;46.626;18.866;2023-04-08T06:07:43;100710.09;;;5.07;90.96
58072;BME280;60383;46.626;18.866;2023-04-08T06:10:09;100709.63;;;4.89;90.91
58072;BME280;60383;46.626;18.866;2023-04-08T06:12:35;100710.56;;;5.01;91.38
58072;BME280;60383;46.626;18.866;2023-04-08T06:15:03;100706.06;;;4.89;91.76
58072;BME280;60383;46.626;18.866;2023-04-08T06:17:28;100705.09;;;4.90;91.98
58072;BME280;60383;46.626;18.866;2023-04-08T06:19:54;100697.13;;;4.62;92.50
58072;BME280;60383;46.626;18.866;2023-04-08T06:22:19;100706.22;;;4.74;92.96
58072;BME280;60383;46.626;18.866;2023-04-08T06:24:48;100705.69;;;4.69;93.15
58072;BME280;60383;46.626;18.866;2023-04-08T06:27:14;100711.31;;;4.79;94.07
58072;BME280;60383;46.626;18.866;2023-04-08T06:29:40;100706.63;;;4.81;93.97
58072;BME280;60383;46.626;18.866;2023-04-08T06:32:06;100713.91;;;4.80;92.77
58072;BME280;60383;46.626;18.866;2023-04-08T06:34:31;100712.63;;;4.73;93.85
58072;BME280;60383;46.626;18.866;2023-04-08T06:36:56;100714.50;;;4.60;93.91
58072;BME280;60383;46.626;18.866;2023-04-08T06:39:22;100725.53;;;4.83;93.92
58072;BME280;60383;46.626;18.866;2023-04-08T06:41:48;100721.13;;;4.93;92.99
58072;BME280;60383;46.626;18.866;2023-04-08T06:44:13;100725.38;;;4.97;93.65
58072;BME280;60383;46.626;18.866;2023-04-08T06:46:40;100726.25;;;4.85;92.94
58072;BME280;60383;46.626;18.866;2023-04-08T06:49:05;100726.22;;;4.98;92.81
58072;BME280;60383;46.626;18.866;2023-04-08T06:51:31;100734.69;;;4.93;93.27
58072;BME280;60383;46.626;18.866;2023-04-08T06:53:57;100733.41;;;4.86;93.10
58072;BME280;60383;46.626;18.866;2023-04-08T06:56:22;100732.09;;;4.91;94.01
58072;BME280;60383;46.626;18.866;2023-04-08T06:58:50;100738.97;;;4.84;94.74
58072;BME280;60383;46.626;18.866;2023-04-08T07:01:16;100736.09;;;4.99;93.91
58072;BME280;60383;46.626;18.866;2023-04-08T07:03:43;100736.03;;;4.87;94.09
58072;BME280;60383;46.626;18.866;2023-04-08T07:06:08;100741.25;;;4.77;93.68
58072;BME280;60383;46.626;18.866;2023-04-08T07:08:34;100742.34;;;4.75;94.43
58072;BME280;60383;46.626;18.866;2023-04-08T07:11:00;100739.28;;;4.92;94.72
58072;BME280;60383;46.626;18.866;2023-04-08T07:13:26;100748.66;;;4.75;94.70
58072;BME280;60383;46.626;18.866;2023-04-08T07:15:52;100745.09;;;4.99;94.79
58072;BME280;60383;46.626;18.866;2023-04-08T07:18:17;100751.28;;;5.01;95.11
58072;BME280;60383;46.626;18.866;2023-04-08T07:20:43;100753.56;;;5.07;94.59
58072;BME280;60383;46.626;18.866;2023-04-08T07:23:08;100749.69;;;5.23;94.51
58072;BME280;60383;46.626;18.866;2023-04-08T07:25:34;100757.38;;;5.05;94.92
58072;BME280;60383;46.626;18.866;2023-04-08T07:28:00;100762.97;;;5.15;96.15
58072;BME280;60383;46.626;18.866;2023-04-08T07:30:25;100760.13;;;5.16;96.63
58072;BME280;60383;46.626;18.866;2023-04-08T07:32:51;100764.38;;;5.20;96.23
58072;BME280;60383;46.626;18.866;2023-04-08T07:35:20;100764.44;;;5.32;94.89
58072;BME280;60383;46.626;18.866;2023-04-08T07:37:49;100770.63;;;5.34;94.69
58072;BME280;60383;46.626;18.866;2023-04-08T07:40:16;100766.75;;;5.25;93.37
58072;BME280;60383;46.626;18.866;2023-04-08T07:42:41;100774.47;;;5.18;93.07
58072;BME280;60383;46.626;18.866;2023-04-08T07:45:07;100768.84;;;5.21;93.62
58072;BME280;60383;46.626;18.866;2023-04-08T07:47:32;100783.41;;;5.44;93.02
58072;BME280;60383;46.626;18.866;2023-04-08T07:49:58;100784.75;;;5.50;93.60
58072;BME280;60383;46.626;18.866;2023-04-08T07:52:23;100783.78;;;5.51;93.54
58072;BME280;60383;46.626;18.866;2023-04-08T07:54:50;100775.59;;;5.64;93.30
58072;BME280;60383;46.626;18.866;2023-04-08T07:57:15;100779.50;;;5.60;92.78
58072;BME280;60383;46.626;18.866;2023-04-08T07:59:41;100784.84;;;5.37;92.61
58072;BME280;60383;46.626;18.866;2023-04-08T08:02:06;100787.91;;;5.33;92.65
58072;BME280;60383;46.626;18.866;2023-04-08T08:04:32;100783.31;;;5.57;90.13
58072;BME280;60383;46.626;18.866;2023-04-08T08:06:58;100784.09;;;5.59;89.97
58072;BME280;60383;46.626;18.866;2023-04-08T08:09:23;100779.66;;;5.70;90.54
58072;BME280;60383;46.626;18.866;2023-04-08T08:11:49;100786.84;;;5.71;91.23
58072;BME280;60383;46.626;18.866;2023-04-08T08:14:15;100786.19;;;5.67;91.29
58072;BME280;60383;46.626;18.866;2023-04-08T08:16:40;100788.03;;;5.55;90.95
58072;BME280;60383;46.626;18.866;2023-04-08T08:19:06;100793.00;;;5.62;92.03
58072;BME280;60383;46.626;18.866;2023-04-08T08:21:36;100789.69;;;5.69;92.23
58072;BME280;60383;46.626;18.866;2023-04-08T08:24:01;100789.81;;;5.68;93.13
58072;BME280;60383;46.626;18.866;2023-04-08T08:26:27;100794.78;;;5.74;93.67
58072;BME280;60383;46.626;18.866;2023-04-08T08:28:53;100786.44;;;5.16;94.35
58072;BME280;60383;46.626;18.866;2023-04-08T08:31:18;100803.41;;;5.06;93.44
58072;BME280;60383;46.626;18.866;2023-04-08T08:33:44;100798.72;;;5.08;92.18
58072;BME280;60383;46.626;18.866;2023-04-08T08:36:11;100802.88;;;5.01;95.96
58072;BME280;60383;46.626;18.866;2023-04-08T08:38:36;100806.03;;;5.08;95.53
58072;BME280;60383;46.626;18.866;2023-04-08T08:41:02;100800.41;;;4.85;97.59
58072;BME280;60383;46.626;18.866;2023-04-08T08:43:29;100800.72;;;5.31;94.45
58072;BME280;60383;46.626;18.866;2023-04-08T08:45:58;100811.53;;;5.06;94.21
58072;BME280;60383;46.626;18.866;2023-04-08T08:48:24;100810.59;;;5.32;93.20
58072;BME280;60383;46.626;18.866;2023-04-08T08:50:50;100801.94;;;5.26;92.87
58072;BME280;60383;46.626;18.866;2023-04-08T08:53:15;100814.72;;;5.62;93.11
58072;BME280;60383;46.626;18.866;2023-04-08T08:55:41;100818.59;;;5.70;91.34
58072;BME280;60383;46.626;18.866;2023-04-08T08:58:07;100817.59;;;5.23;92.15
58072;BME280;60383;46.626;18.866;2023-04-08T09:00:38;100825.16;;;4.93;92.48
58072;BME280;60383;46.626;18.866;2023-04-08T09:03:14;100823.88;;;5.23;91.91
58072;BME280;60383;46.626;18.866;2023-04-08T09:05:53;100826.97;;;5.06;92.16
58072;BME280;60383;46.626;18.866;2023-04-08T09:08:36;100830.06;;;5.25;91.67
58072;BME280;60383;46.626;18.866;2023-04-08T09:13:36;100832.75;;;5.38;93.28
58072;BME280;60383;46.626;18.866;2023-04-08T09:16:04;100830.28;;;5.59;90.70
58072;BME280;60383;46.626;18.866;2023-04-08T09:18:31;100836.13;;;5.66;90.17
58072;BME280;60383;46.626;18.866;2023-04-08T09:21:00;100831.53;;;5.91;89.66
58072;BME280;60383;46.626;18.866;2023-04-08T09:23:55;100843.97;;;5.34;88.66
58072;BME280;60383;46.626;18.866;2023-04-08T09:26:22;100845.94;;;5.56;91.67
58072;BME280;60383;46.626;18.866;2023-04-08T09:29:02;100843.81;;;5.72;87.23
58072;BME280;60383;46.626;18.866;2023-04-08T09:31:30;100840.97;;;5.74;87.35
58072;BME280;60383;46.626;18.866;2023-04-08T09:34:00;100843.28;;;5.67;88.25
58072;BME280;60383;46.626;18.866;2023-04-08T09:36:29;100847.38;;;5.49;90.45
58072;BME280;60383;46.626;18.866;2023-04-08T09:38:55;100855.41;;;5.74;89.27
58072;BME280;60383;46.626;18.866;2023-04-08T09:41:21;100846.97;;;5.90;90.14
58072;BME280;60383;46.626;18.866;2023-04-08T09:43:50;100850.63;;;6.02;89.16
58072;BME280;60383;46.626;18.866;2023-04-08T09:49:28;100854.03;;;6.17;85.37
58072;BME280;60383;46.626;18.866;2023-04-08T09:52:10;100857.53;;;6.31;84.25
58072;BME280;60383;46.626;18.866;2023-04-08T09:54:47;100859.38;;;6.30;82.54
58072;BME280;60383;46.626;18.866;2023-04-08T09:57:26;100855.81;;;6.41;81.30
58072;BME280;60383;46.626;18.866;2023-04-08T10:00:11;100855.00;;;6.63;82.15
58072;BME280;60383;46.626;18.866;2023-04-08T10:05:07;100858.75;;;6.27;82.74
58072;BME280;60383;46.626;18.866;2023-04-08T10:07:35;100857.84;;;6.62;83.19
58072;BME280;60383;46.626;18.866;2023-04-08T10:10:01;100848.09;;;7.04;77.86
58072;BME280;60383;46.626;18.866;2023-04-08T10:12:28;100852.03;;;6.66;79.60
58072;BME280;60383;46.626;18.866;2023-04-08T10:15:22;100855.25;;;6.71;78.35
58072;BME280;60383;46.626;18.866;2023-04-08T10:25:31;100851.56;;;7.07;79.29
58072;BME280;60383;46.626;18.866;2023-04-08T10:27:58;100849.31;;;7.34;78.58
58072;BME280;60383;46.626;18.866;2023-04-08T10:32:58;100852.22;;;7.65;77.24
58072;BME280;60383;46.626;18.866;2023-04-08T10:35:31;100854.66;;;7.80;75.39
58072;BME280;60383;46.626;18.866;2023-04-08T10:37:59;100852.94;;;7.67;77.34
58072;BME280;60383;46.626;18.866;2023-04-08T10:40:25;100859.19;;;7.58;76.36
58072;BME280;60383;46.626;18.866;2023-04-08T10:42:57;100859.47;;;7.32;77.74
58072;BME280;60383;46.626;18.866;2023-04-08T10:45:23;100847.56;;;7.33;76.45
58072;BME280;60383;46.626;18.866;2023-04-08T10:47:49;100851.31;;;7.21;78.92
58072;BME280;60383;46.626;18.866;2023-04-08T10:50:16;100852.19;;;7.10;75.67
58072;BME280;60383;46.626;18.866;2023-04-08T10:52:52;100859.09;;;6.69;76.85
58072;BME280;60383;46.626;18.866;2023-04-08T10:55:25;100851.69;;;6.94;79.63
58072;BME280;60383;46.626;18.866;2023-04-08T10:57:54;100850.34;;;6.88;78.60
58072;BME280;60383;46.626;18.866;2023-04-08T11:03:01;100856.72;;;6.53;78.75
58072;BME280;60383;46.626;18.866;2023-04-08T11:05:27;100851.78;;;6.58;79.66
58072;BME280;60383;46.626;18.866;2023-04-08T11:07:52;100850.34;;;6.88;80.36
58072;BME280;60383;46.626;18.866;2023-04-08T11:10:19;100849.69;;;6.50;79.76
58072;BME280;60383;46.626;18.866;2023-04-08T11:12:44;100849.69;;;6.73;82.37
58072;BME280;60383;46.626;18.866;2023-04-08T11:15:12;100852.19;;;6.65;81.06
58072;BME280;60383;46.626;18.866;2023-04-08T11:17:38;100849.22;;;6.91;76.22
58072;BME280;60383;46.626;18.866;2023-04-08T11:20:04;100847.72;;;6.75;75.61
58072;BME280;60383;46.626;18.866;2023-04-08T11:22:33;100851.78;;;6.69;76.20
58072;BME280;60383;46.626;18.866;2023-04-08T11:25:00;100844.09;;;6.52;77.62
58072;BME280;60383;46.626;18.866;2023-04-08T11:27:26;100857.75;;;6.86;79.75
58072;BME280;60383;46.626;18.866;2023-04-08T11:29:54;100847.38;;;7.02;79.51
58072;BME280;60383;46.626;18.866;2023-04-08T11:32:21;100843.88;;;7.12;78.55
58072;BME280;60383;46.626;18.866;2023-04-08T11:34:50;100851.22;;;7.00;80.17
58072;BME280;60383;46.626;18.866;2023-04-08T11:37:17;100842.41;;;6.96;80.31
58072;BME280;60383;46.626;18.866;2023-04-08T11:39:43;100849.34;;;6.89;80.24
58072;BME280;60383;46.626;18.866;2023-04-08T11:42:09;100840.81;;;7.05;80.36
58072;BME280;60383;46.626;18.866;2023-04-08T11:44:50;100845.88;;;7.10;80.53
58072;BME280;60383;46.626;18.866;2023-04-08T11:47:15;100848.34;;;6.90;81.15
58072;BME280;60383;46.626;18.866;2023-04-08T11:49:44;100848.97;;;6.82;81.95
58072;BME280;60383;46.626;18.866;2023-04-08T11:52:10;100852.19;;;6.76;83.19
58072;BME280;60383;46.626;18.866;2023-04-08T11:54:40;100851.28;;;6.64;84.51
58072;BME280;60383;46.626;18.866;2023-04-08T11:57:06;100851.41;;;6.51;85.05
58072;BME280;60383;46.626;18.866;2023-04-08T11:59:34;100854.13;;;6.51;85.99
58072;BME280;60383;46.626;18.866;2023-04-08T12:02:03;100844.47;;;6.47;84.78
58072;BME280;60383;46.626;18.866;2023-04-08T12:04:29;100843.25;;;6.16;85.65
58072;BME280;60383;46.626;18.866;2023-04-08T12:06:55;100846.81;;;6.41;85.88
58072;BME280;60383;46.626;18.866;2023-04-08T12:09:21;100855.47;;;6.57;85.18
58072;BME280;60383;46.626;18.866;2023-04-08T12:11:47;100847.31;;;6.46;85.24
58072;BME280;60383;46.626;18.866;2023-04-08T12:14:12;100857.22;;;6.47;85.47
58072;BME280;60383;46.626;18.866;2023-04-08T12:16:38;100840.97;;;6.34;86.65
58072;BME280;60383;46.626;18.866;2023-04-08T12:19:04;100851.63;;;6.37;87.50
58072;BME280;60383;46.626;18.866;2023-04-08T12:21:29;100850.72;;;6.25;85.58
58072;BME280;60383;46.626;18.866;2023-04-08T12:23:56;100848.34;;;5.96;87.58
58072;BME280;60383;46.626;18.866;2023-04-08T12:26:21;100853.84;;;6.07;85.45
58072;BME280;60383;46.626;18.866;2023-04-08T12:28:47;100849.59;;;5.92;87.46
58072;BME280;60383;46.626;18.866;2023-04-08T12:31:12;100850.28;;;6.07;89.01
58072;BME280;60383;46.626;18.866;2023-04-08T12:33:38;100851.56;;;6.26;88.67
58072;BME280;60383;46.626;18.866;2023-04-08T12:36:03;100850.88;;;6.35;nan
58072;BME280;60383;46.626;18.866;2023-04-08T12:38:29;100845.28;;;6.25;88.71
58072;BME280;60383;46.626;18.866;2023-04-08T12:40:55;100843.78;;;6.21;89.21
58072;BME280;60383;46.626;18.866;2023-04-08T12:43:21;100849.75;;;6.37;90.17
58072;BME280;60383;46.626;18.866;2023-04-08T12:45:48;100846.94;;;6.50;89.75
58072;BME280;60383;46.626;18.866;2023-04-08T12:48:13;100842.00;;;6.67;84.81
58072;BME280;60383;46.626;18.866;2023-04-08T12:50:39;100845.34;;;6.59;86.39
58072;BME280;60383;46.626;18.866;2023-04-08T12:53:04;100845.84;;;6.64;85.52
58072;BME280;60383;46.626;18.866;2023-04-08T12:55:30;100839.69;;;6.62;86.30
58072;BME280;60383;46.626;18.866;2023-04-08T12:57:55;100840.81;;;6.24;85.18
58072;BME280;60383;46.626;18.866;2023-04-08T13:00:21;100843.38;;;6.14;87.94
58072;BME280;60383;46.626;18.866;2023-04-08T13:02:46;100849.31;;;6.08;87.24
58072;BME280;60383;46.626;18.866;2023-04-08T13:05:12;100845.91;;;6.29;89.46
58072;BME280;60383;46.626;18.866;2023-04-08T13:07:37;100853.88;;;6.54;88.87
58072;BME280;60383;46.626;18.866;2023-04-08T13:10:03;100843.84;;;6.44;87.36